sensor_id;sensor_type;location;lat;lon;timestamp;temperature;humidity
10417;DHT22;62605;49.432;8.680;2024-03-08T07:03:09;4.20;99.90
10417;DHT22;62605;49.432;8.680;2024-03-08T07:05:37;4.20;99.90
10417;DHT22;62605;49.432;8.680;2024-03-08T07:08:06;4.40;99.90
10417;DHT22;62605;49.432;8.680;2024-03-08T07:10:33;4.30;99.90
10417;DHT22;62605;49.432;8.680;2024-03-08T07:13:00;4.40;99.90
10417;DHT22;62605;49.432;8.680;2024-03-08T07:15:28;4.30;99.90
10417;DHT22;62605;49.432;8.680;2024-03-08T07:17:55;4.40;99.90
10417;DHT22;62605;49.432;8.680;2024-03-08T07:20:23;4.60;99.90
10417;DHT22;62605;49.432;8.680;2024-03-08T07:22:50;4.50;99.90
10417;DHT22;62605;49.432;8.680;2024-03-08T07:25:18;4.50;99.90
10417;DHT22;62605;49.432;8.680;2024-03-08T07:27:49;4.40;99.90
10417;DHT22;62605;49.432;8.680;2024-03-08T07:30:17;4.50;99.90
10417;DHT22;62605;49.432;8.680;2024-03-08T07:32:58;4.60;99.90
10417;DHT22;62605;49.432;8.680;2024-03-08T07:35:26;4.40;99.90
10417;DHT22;62605;49.432;8.680;2024-03-08T07:37:54;4.50;99.90
10417;DHT22;62605;49.432;8.680;2024-03-08T07:40:21;4.70;99.90
10417;DHT22;62605;49.432;8.680;2024-03-08T07:42:49;4.60;99.90
10417;DHT22;62605;49.432;8.680;2024-03-08T07:45:16;4.70;99.90
10417;DHT22;62605;49.432;8.680;2024-03-08T07:47:43;4.80;99.90
10417;DHT22;62605;49.432;8.680;2024-03-08T07:50:11;4.70;99.90
10417;DHT22;62605;49.432;8.680;2024-03-08T07:52:43;4.70;99.90
10417;DHT22;62605;49.432;8.680;2024-03-08T07:55:10;4.60;99.90
10417;DHT22;62605;49.432;8.680;2024-03-08T07:57:37;4.70;99.90
10417;DHT22;62605;49.432;8.680;2024-03-08T08:00:06;4.70;99.90
10417;DHT22;62605;49.432;8.680;2024-03-08T08:02:34;5.00;99.90
10417;DHT22;62605;49.432;8.680;2024-03-08T08:05:01;4.90;99.90
10417;DHT22;62605;49.432;8.680;2024-03-08T08:07:29;4.80;99.90
10417;DHT22;62605;49.432;8.680;2024-03-08T08:09:58;4.90;99.90
10417;DHT22;62605;49.432;8.680;2024-03-08T08:12:25;5.10;99.90
10417;DHT22;62605;49.432;8.680;2024-03-08T08:14:54;5.10;99.90
10417;DHT22;62605;49.432;8.680;2024-03-08T08:17:21;5.10;99.90
10417;DHT22;62605;49.432;8.680;2024-03-08T08:19:48;5.10;99.90
10417;DHT22;62605;49.432;8.680;2024-03-08T08:22:16;5.10;99.90
10417;DHT22;62605;49.432;8.680;2024-03-08T08:24:43;5.00;99.90
10417;DHT22;62605;49.432;8.680;2024-03-08T08:27:12;5.00;99.90
10417;DHT22;62605;49.432;8.680;2024-03-08T08:29:40;5.10;99.90
10417;DHT22;62605;49.432;8.680;2024-03-08T08:32:07;5.20;99.90
10417;DHT22;62605;49.432;8.680;2024-03-08T08:34:34;5.20;99.90
10417;DHT22;62605;49.432;8.680;2024-03-08T08:37:02;5.20;99.90
10417;DHT22;62605;49.432;8.680;2024-03-08T08:39:29;5.30;99.90
10417;DHT22;62605;49.432;8.680;2024-03-08T08:41:56;5.30;99.90
10417;DHT22;62605;49.432;8.680;2024-03-08T08:44:25;5.30;99.90
10417;DHT22;62605;49.432;8.680;2024-03-08T08:46:52;5.30;99.90
10417;DHT22;62605;49.432;8.680;2024-03-08T08:49:20;5.30;99.90
10417;DHT22;62605;49.432;8.680;2024-03-08T08:51:49;5.40;99.90
10417;DHT22;62605;49.432;8.680;2024-03-08T08:54:16;5.50;99.90
10417;DHT22;62605;49.432;8.680;2024-03-08T08:56:43;5.40;99.90
10417;DHT22;62605;49.432;8.680;2024-03-08T08:59:10;5.50;99.90
10417;DHT22;62605;49.432;8.680;2024-03-08T09:01:40;5.70;99.90
10417;DHT22;62605;49.432;8.680;2024-03-08T09:04:07;5.60;99.90
10417;DHT22;62605;49.432;8.680;2024-03-08T09:06:37;5.70;99.90
10417;DHT22;62605;49.432;8.680;2024-03-08T09:09:06;5.70;99.90
10417;DHT22;62605;49.432;8.680;2024-03-08T09:11:36;5.70;99.90
10417;DHT22;62605;49.432;8.680;2024-03-08T09:14:07;5.60;99.90
10417;DHT22;62605;49.432;8.680;2024-03-08T09:16:34;5.70;99.90
10417;DHT22;62605;49.432;8.680;2024-03-08T09:19:03;5.80;99.90
10417;DHT22;62605;49.432;8.680;2024-03-08T09:21:32;5.90;99.90
10417;DHT22;62605;49.432;8.680;2024-03-08T09:24:00;5.80;99.90
10417;DHT22;62605;49.432;8.680;2024-03-08T09:26:27;6.00;99.90
10417;DHT22;62605;49.432;8.680;2024-03-08T09:29:00;6.10;99.90
10417;DHT22;62605;49.432;8.680;2024-03-08T09:31:27;6.10;99.90
10417;DHT22;62605;49.432;8.680;2024-03-08T09:33:54;6.20;99.90
10417;DHT22;62605;49.432;8.680;2024-03-08T09:36:23;6.20;99.90
10417;DHT22;62605;49.432;8.680;2024-03-08T09:38:51;6.20;99.90
10417;DHT22;62605;49.432;8.680;2024-03-08T09:41:18;6.20;99.90
10417;DHT22;62605;49.432;8.680;2024-03-08T09:43:46;6.20;99.90
10417;DHT22;62605;49.432;8.680;2024-03-08T09:46:14;6.00;99.90
10417;DHT22;62605;49.432;8.680;2024-03-08T09:48:42;5.90;99.90
10417;DHT22;62605;49.432;8.680;2024-03-08T09:51:09;6.00;99.90
10417;DHT22;62605;49.432;8.680;2024-03-08T09:53:41;6.10;99.90
10417;DHT22;62605;49.432;8.680;2024-03-08T09:56:09;6.20;99.90
10417;DHT22;62605;49.432;8.680;2024-03-08T09:58:37;6.20;99.90
10417;DHT22;62605;49.432;8.680;2024-03-08T10:01:20;6.30;99.90
10417;DHT22;62605;49.432;8.680;2024-03-08T10:03:47;6.40;99.90
10417;DHT22;62605;49.432;8.680;2024-03-08T10:06:16;6.30;99.90
10417;DHT22;62605;49.432;8.680;2024-03-08T10:08:44;6.40;99.90
10417;DHT22;62605;49.432;8.680;2024-03-08T10:11:11;6.40;99.90
10417;DHT22;62605;49.432;8.680;2024-03-08T10:13:39;6.70;99.90
10417;DHT22;62605;49.432;8.680;2024-03-08T10:16:08;6.80;99.90
10417;DHT22;62605;49.432;8.680;2024-03-08T10:18:34;7.10;99.90
10417;DHT22;62605;49.432;8.680;2024-03-08T10:21:03;6.90;99.90
10417;DHT22;62605;49.432;8.680;2024-03-08T10:23:31;6.70;99.90
10417;DHT22;62605;49.432;8.680;2024-03-08T10:26:09;6.90;99.90
10417;DHT22;62605;49.432;8.680;2024-03-08T10:28:37;7.00;99.90
10417;DHT22;62605;49.432;8.680;2024-03-08T10:31:04;7.20;99.90
10417;DHT22;62605;49.432;8.680;2024-03-08T10:33:32;7.10;99.90
10417;DHT22;62605;49.432;8.680;2024-03-08T10:35:59;7.10;99.90
10417;DHT22;62605;49.432;8.680;2024-03-08T10:38:31;7.20;99.90
10417;DHT22;62605;49.432;8.680;2024-03-08T10:41:00;7.10;99.90
10417;DHT22;62605;49.432;8.680;2024-03-08T10:43:33;7.10;99.90
10417;DHT22;62605;49.432;8.680;2024-03-08T10:46:14;7.20;99.90
10417;DHT22;62605;49.432;8.680;2024-03-08T10:49:10;7.20;99.90
10417;DHT22;62605;49.432;8.680;2024-03-08T10:51:40;7.20;99.90
10417;DHT22;62605;49.432;8.680;2024-03-08T10:54:09;7.30;99.90
10417;DHT22;62605;49.432;8.680;2024-03-08T10:56:37;7.30;99.90
10417;DHT22;62605;49.432;8.680;2024-03-08T10:59:08;7.40;99.90
10417;DHT22;62605;49.432;8.680;2024-03-08T11:01:36;7.50;99.90
10417;DHT22;62605;49.432;8.680;2024-03-08T11:04:04;7.80;99.90
10417;DHT22;62605;49.432;8.680;2024-03-08T11:06:42;7.90;99.90
10417;DHT22;62605;49.432;8.680;2024-03-08T11:09:27;7.90;99.90
10417;DHT22;62605;49.432;8.680;2024-03-08T11:12:22;7.50;99.90
10417;DHT22;62605;49.432;8.680;2024-03-08T11:14:54;7.60;99.90
10417;DHT22;62605;49.432;8.680;2024-03-08T11:17:27;7.80;99.90
10417;DHT22;62605;49.432;8.680;2024-03-08T11:20:10;7.50;99.90
10417;DHT22;62605;49.432;8.680;2024-03-08T11:22:41;7.60;99.90
10417;DHT22;62605;49.432;8.680;2024-03-08T11:25:31;7.80;99.90
10417;DHT22;62605;49.432;8.680;2024-03-08T11:28:12;7.70;99.90
10417;DHT22;62605;49.432;8.680;2024-03-08T11:33:58;7.80;99.90
10417;DHT22;62605;49.432;8.680;2024-03-08T11:36:27;7.90;99.90
10417;DHT22;62605;49.432;8.680;2024-03-08T11:38:58;8.00;99.90
10417;DHT22;62605;49.432;8.680;2024-03-08T11:41:28;8.10;99.90
10417;DHT22;62605;49.432;8.680;2024-03-08T11:44:04;8.10;99.90
10417;DHT22;62605;49.432;8.680;2024-03-08T11:46:38;8.30;99.90
10417;DHT22;62605;49.432;8.680;2024-03-08T11:49:12;8.30;99.90
10417;DHT22;62605;49.432;8.680;2024-03-08T11:51:39;8.60;99.90
10417;DHT22;62605;49.432;8.680;2024-03-08T11:54:10;8.40;99.90
10417;DHT22;62605;49.432;8.680;2024-03-08T11:56:38;8.60;99.90
10417;DHT22;62605;49.432;8.680;2024-03-08T11:59:11;8.70;99.90
10417;DHT22;62605;49.432;8.680;2024-03-08T12:01:40;8.40;99.90
10417;DHT22;62605;49.432;8.680;2024-03-08T12:04:12;8.70;99.90
10417;DHT22;62605;49.432;8.680;2024-03-08T12:06:40;8.90;99.90
10417;DHT22;62605;49.432;8.680;2024-03-08T12:09:10;8.80;99.90
10417;DHT22;62605;49.432;8.680;2024-03-08T12:11:39;8.90;99.90
10417;DHT22;62605;49.432;8.680;2024-03-08T12:14:06;9.00;99.90
10417;DHT22;62605;49.432;8.680;2024-03-08T12:16:33;9.10;99.90
10417;DHT22;62605;49.432;8.680;2024-03-08T12:19:02;9.30;99.90
10417;DHT22;62605;49.432;8.680;2024-03-08T12:21:31;9.30;99.90
10417;DHT22;62605;49.432;8.680;2024-03-08T12:24:05;9.30;99.90
10417;DHT22;62605;49.432;8.680;2024-03-08T12:26:35;9.10;99.90
10417;DHT22;62605;49.432;8.680;2024-03-08T12:29:17;9.40;99.90
10417;DHT22;62605;49.432;8.680;2024-03-08T12:31:46;9.40;99.90
10417;DHT22;62605;49.432;8.680;2024-03-08T12:34:15;9.50;99.90
10417;DHT22;62605;49.432;8.680;2024-03-08T12:36:46;9.70;99.90
10417;DHT22;62605;49.432;8.680;2024-03-08T12:39:16;9.50;99.90
10417;DHT22;62605;49.432;8.680;2024-03-08T12:41:48;9.60;99.90
10417;DHT22;62605;49.432;8.680;2024-03-08T12:44:15;9.80;99.90
10417;DHT22;62605;49.432;8.680;2024-03-08T12:46:44;9.70;99.90
10417;DHT22;62605;49.432;8.680;2024-03-08T12:49:11;9.80;99.90
10417;DHT22;62605;49.432;8.680;2024-03-08T12:51:40;10.00;99.90
10417;DHT22;62605;49.432;8.680;2024-03-08T12:54:07;10.10;99.90
10417;DHT22;62605;49.432;8.680;2024-03-08T12:56:35;10.10;99.90
10417;DHT22;62605;49.432;8.680;2024-03-08T12:59:03;10.30;99.90
10417;DHT22;62605;49.432;8.680;2024-03-08T13:01:31;10.40;99.90
10417;DHT22;62605;49.432;8.680;2024-03-08T13:03:59;10.10;99.90
10417;DHT22;62605;49.432;8.680;2024-03-08T13:06:28;10.20;99.90
10417;DHT22;62605;49.432;8.680;2024-03-08T13:09:00;10.20;99.90
10417;DHT22;62605;49.432;8.680;2024-03-08T13:11:31;10.60;99.90
10417;DHT22;62605;49.432;8.680;2024-03-08T13:14:03;10.40;99.90
10417;DHT22;62605;49.432;8.680;2024-03-08T13:16:31;10.40;99.90
10417;DHT22;62605;49.432;8.680;2024-03-08T13:19:00;10.50;99.90
10417;DHT22;62605;49.432;8.680;2024-03-08T13:21:27;10.50;99.90
10417;DHT22;62605;49.432;8.680;2024-03-08T13:23:56;10.60;99.90
10417;DHT22;62605;49.432;8.680;2024-03-08T13:26:26;10.60;99.90
10417;DHT22;62605;49.432;8.680;2024-03-08T13:28:58;10.70;99.90
10417;DHT22;62605;49.432;8.680;2024-03-08T13:31:26;11.10;99.90
10417;DHT22;62605;49.432;8.680;2024-03-08T13:33:54;10.70;99.90
10417;DHT22;62605;49.432;8.680;2024-03-08T13:36:24;11.00;99.90
10417;DHT22;62605;49.432;8.680;2024-03-08T13:38:55;11.10;99.90
10417;DHT22;62605;49.432;8.680;2024-03-08T13:41:26;11.30;99.90
10417;DHT22;62605;49.432;8.680;2024-03-08T13:43:53;11.20;99.90
10417;DHT22;62605;49.432;8.680;2024-03-08T13:46:21;11.40;99.90
10417;DHT22;62605;49.432;8.680;2024-03-08T13:48:49;11.50;99.90
10417;DHT22;62605;49.432;8.680;2024-03-08T13:51:17;11.50;99.90
10417;DHT22;62605;49.432;8.680;2024-03-08T13:53:44;11.70;99.90
10417;DHT22;62605;49.432;8.680;2024-03-08T13:56:12;11.90;99.90
10417;DHT22;62605;49.432;8.680;2024-03-08T13:58:42;11.60;99.90
10417;DHT22;62605;49.432;8.680;2024-03-08T14:01:09;11.70;99.90
10417;DHT22;62605;49.432;8.680;2024-03-08T14:03:37;11.70;99.90
10417;DHT22;62605;49.432;8.680;2024-03-08T14:06:07;11.50;99.90
10417;DHT22;62605;49.432;8.680;2024-03-08T14:08:35;11.30;99.90
10417;DHT22;62605;49.432;8.680;2024-03-08T14:11:04;11.40;99.90
10417;DHT22;62605;49.432;8.680;2024-03-08T14:13:42;11.60;99.90
10417;DHT22;62605;49.432;8.680;2024-03-08T14:16:11;11.80;99.90
10417;DHT22;62605;49.432;8.680;2024-03-08T14:18:39;11.90;99.90
10417;DHT22;62605;49.432;8.680;2024-03-08T14:21:06;11.80;99.90
10417;DHT22;62605;49.432;8.680;2024-03-08T14:23:37;11.60;99.90
10417;DHT22;62605;49.432;8.680;2024-03-08T14:26:09;11.70;99.90
10417;DHT22;62605;49.432;8.680;2024-03-08T14:28:36;11.60;99.90
10417;DHT22;62605;49.432;8.680;2024-03-08T14:31:06;11.80;99.90
10417;DHT22;62605;49.432;8.680;2024-03-08T14:33:36;11.90;99.90
10417;DHT22;62605;49.432;8.680;2024-03-08T14:36:05;11.90;99.90
10417;DHT22;62605;49.432;8.680;2024-03-08T14:38:32;12.00;99.90
10417;DHT22;62605;49.432;8.680;2024-03-08T14:41:00;12.00;99.90
10417;DHT22;62605;49.432;8.680;2024-03-08T14:43:29;11.90;99.90
10417;DHT22;62605;49.432;8.680;2024-03-08T14:45:57;11.60;99.90
10417;DHT22;62605;49.432;8.680;2024-03-08T14:48:26;11.90;99.90
10417;DHT22;62605;49.432;8.680;2024-03-08T14:50:53;11.90;99.90
10417;DHT22;62605;49.432;8.680;2024-03-08T14:53:20;12.00;99.90
10417;DHT22;62605;49.432;8.680;2024-03-08T14:55:47;11.90;99.90
10417;DHT22;62605;49.432;8.680;2024-03-08T14:58:15;11.90;99.90
10417;DHT22;62605;49.432;8.680;2024-03-08T15:00:43;12.00;99.90
10417;DHT22;62605;49.432;8.680;2024-03-08T15:03:23;12.00;99.90
10417;DHT22;62605;49.432;8.680;2024-03-08T15:05:53;11.90;99.90
10417;DHT22;62605;49.432;8.680;2024-03-08T15:08:21;11.80;99.90
10417;DHT22;62605;49.432;8.680;2024-03-08T15:10:50;11.80;99.90
10417;DHT22;62605;49.432;8.680;2024-03-08T15:13:20;12.10;99.90
10417;DHT22;62605;49.432;8.680;2024-03-08T15:15:49;12.30;99.90
10417;DHT22;62605;49.432;8.680;2024-03-08T15:18:21;12.30;99.90
10417;DHT22;62605;49.432;8.680;2024-03-08T15:20:53;12.50;99.90
10417;DHT22;62605;49.432;8.680;2024-03-08T15:23:21;12.30;99.90
10417;DHT22;62605;49.432;8.680;2024-03-08T15:25:48;12.10;99.90
10417;DHT22;62605;49.432;8.680;2024-03-08T15:28:15;12.20;99.90
10417;DHT22;62605;49.432;8.680;2024-03-08T15:30:45;12.20;99.90
10417;DHT22;62605;49.432;8.680;2024-03-08T15:33:17;12.20;99.90
10417;DHT22;62605;49.432;8.680;2024-03-08T15:35:52;12.10;99.90
10417;DHT22;62605;49.432;8.680;2024-03-08T15:38:24;11.70;99.90
10417;DHT22;62605;49.432;8.680;2024-03-08T15:40:53;11.90;99.90
10417;DHT22;62605;49.432;8.680;2024-03-08T15:43:20;12.00;99.90
10417;DHT22;62605;49.432;8.680;2024-03-08T15:45:48;11.80;99.90
10417;DHT22;62605;49.432;8.680;2024-03-08T15:48:15;12.00;99.90
10417;DHT22;62605;49.432;8.680;2024-03-08T15:50:43;11.90;99.90
10417;DHT22;62605;49.432;8.680;2024-03-08T15:53:11;12.00;99.90
10417;DHT22;62605;49.432;8.680;2024-03-08T15:55:38;12.00;99.90
10417;DHT22;62605;49.432;8.680;2024-03-08T15:58:06;11.90;99.90
10417;DHT22;62605;49.432;8.680;2024-03-08T16:00:34;11.90;99.90
10417;DHT22;62605;49.432;8.680;2024-03-08T16:03:03;11.80;99.90
10417;DHT22;62605;49.432;8.680;2024-03-08T16:05:32;11.80;99.90
10417;DHT22;62605;49.432;8.680;2024-03-08T16:08:00;11.70;99.90
10417;DHT22;62605;49.432;8.680;2024-03-08T16:10:29;11.80;99.90
10417;DHT22;62605;49.432;8.680;2024-03-08T16:12:59;11.80;99.90
10417;DHT22;62605;49.432;8.680;2024-03-08T16:15:29;11.70;99.90
10417;DHT22;62605;49.432;8.680;2024-03-08T16:17:56;11.50;99.90
10417;DHT22;62605;49.432;8.680;2024-03-08T16:20:23;11.50;99.90
10417;DHT22;62605;49.432;8.680;2024-03-08T16:22:51;11.50;99.90
10417;DHT22;62605;49.432;8.680;2024-03-08T16:25:18;11.40;99.90
10417;DHT22;62605;49.432;8.680;2024-03-08T16:27:47;11.40;99.90
10417;DHT22;62605;49.432;8.680;2024-03-08T16:30:15;11.40;99.90
10417;DHT22;62605;49.432;8.680;2024-03-08T16:32:43;11.30;99.90
10417;DHT22;62605;49.432;8.680;2024-03-08T16:35:12;11.30;99.90
10417;DHT22;62605;49.432;8.680;2024-03-08T16:37:42;11.30;99.90
10417;DHT22;62605;49.432;8.680;2024-03-08T16:40:10;11.20;99.90
10417;DHT22;62605;49.432;8.680;2024-03-08T16:42:42;11.20;99.90
10417;DHT22;62605;49.432;8.680;2024-03-08T16:45:11;11.10;99.90
10417;DHT22;62605;49.432;8.680;2024-03-08T16:47:38;11.00;99.90
10417;DHT22;62605;49.432;8.680;2024-03-08T16:50:08;10.90;99.90
10417;DHT22;62605;49.432;8.680;2024-03-08T16:52:38;10.80;99.90
10417;DHT22;62605;49.432;8.680;2024-03-08T16:55:07;10.80;99.90
10417;DHT22;62605;49.432;8.680;2024-03-08T16:57:39;10.80;99.90
10417;DHT22;62605;49.432;8.680;2024-03-08T17:00:13;10.60;99.90
10417;DHT22;62605;49.432;8.680;2024-03-08T17:02:44;10.50;99.90
10417;DHT22;62605;49.432;8.680;2024-03-08T17:05:16;10.50;99.90
10417;DHT22;62605;49.432;8.680;2024-03-08T17:07:43;10.30;99.90
10417;DHT22;62605;49.432;8.680;2024-03-08T17:10:12;10.40;99.90
10417;DHT22;62605;49.432;8.680;2024-03-08T17:12:44;10.30;99.90
10417;DHT22;62605;49.432;8.680;2024-03-08T17:15:15;10.20;99.90
10417;DHT22;62605;49.432;8.680;2024-03-08T17:17:43;10.10;99.90
10417;DHT22;62605;49.432;8.680;2024-03-08T17:20:12;10.10;99.90
10417;DHT22;62605;49.432;8.680;2024-03-08T17:22:41;10.00;99.90
10417;DHT22;62605;49.432;8.680;2024-03-08T17:25:09;10.10;99.90
10417;DHT22;62605;49.432;8.680;2024-03-08T17:27:42;9.90;99.90
10417;DHT22;62605;49.432;8.680;2024-03-08T17:30:11;9.90;99.90
10417;DHT22;62605;49.432;8.680;2024-03-08T17:32:47;9.80;99.90
10417;DHT22;62605;49.432;8.680;2024-03-08T17:35:15;9.90;99.90
10417;DHT22;62605;49.432;8.680;2024-03-08T17:37:45;9.90;99.90
10417;DHT22;62605;49.432;8.680;2024-03-08T17:40:16;9.90;99.90
10417;DHT22;62605;49.432;8.680;2024-03-08T17:42:50;9.80;99.90
10417;DHT22;62605;49.432;8.680;2024-03-08T17:45:18;9.90;99.90
10417;DHT22;62605;49.432;8.680;2024-03-08T17:47:48;10.00;99.90
10417;DHT22;62605;49.432;8.680;2024-03-08T17:50:16;10.00;99.90
10417;DHT22;62605;49.432;8.680;2024-03-08T17:52:44;9.90;99.90
10417;DHT22;62605;49.432;8.680;2024-03-08T17:55:12;9.90;99.90
10417;DHT22;62605;49.432;8.680;2024-03-08T17:57:44;9.90;99.90
10417;DHT22;62605;49.432;8.680;2024-03-08T18:00:13;9.90;99.90
10417;DHT22;62605;49.432;8.680;2024-03-08T18:02:46;10.00;99.90
10417;DHT22;62605;49.432;8.680;2024-03-08T18:05:16;9.90;99.90
10417;DHT22;62605;49.432;8.680;2024-03-08T18:07:44;10.00;99.90
10417;DHT22;62605;49.432;8.680;2024-03-08T18:10:11;10.00;99.90
10417;DHT22;62605;49.432;8.680;2024-03-08T18:12:45;10.00;99.90
10417;DHT22;62605;49.432;8.680;2024-03-08T18:15:14;10.00;99.90
10417;DHT22;62605;49.432;8.680;2024-03-08T18:17:50;10.00;99.90
10417;DHT22;62605;49.432;8.680;2024-03-08T18:20:18;9.80;99.90
10417;DHT22;62605;49.432;8.680;2024-03-08T18:22:47;9.90;99.90
10417;DHT22;62605;49.432;8.680;2024-03-08T18:25:15;9.80;99.90
10417;DHT22;62605;49.432;8.680;2024-03-08T18:27:44;9.80;99.90
10417;DHT22;62605;49.432;8.680;2024-03-08T18:30:12;9.80;99.90
10417;DHT22;62605;49.432;8.680;2024-03-08T18:32:43;9.70;99.90
10417;DHT22;62605;49.432;8.680;2024-03-08T18:35:14;9.80;99.90
10417;DHT22;62605;49.432;8.680;2024-03-08T18:37:43;9.90;99.90
10417;DHT22;62605;49.432;8.680;2024-03-08T18:40:13;9.80;99.90
10417;DHT22;62605;49.432;8.680;2024-03-08T18:42:42;9.80;99.90
10417;DHT22;62605;49.432;8.680;2024-03-08T18:45:11;9.70;99.90
10417;DHT22;62605;49.432;8.680;2024-03-08T18:47:39;9.80;99.90
10417;DHT22;62605;49.432;8.680;2024-03-08T18:50:07;9.80;99.90
10417;DHT22;62605;49.432;8.680;2024-03-08T18:52:39;9.80;99.90
10417;DHT22;62605;49.432;8.680;2024-03-08T18:55:08;9.80;99.90
10417;DHT22;62605;49.432;8.680;2024-03-08T18:57:38;9.80;99.90
10417;DHT22;62605;49.432;8.680;2024-03-08T19:00:10;9.70;99.90
10417;DHT22;62605;49.432;8.680;2024-03-08T19:02:47;9.70;99.90
10417;DHT22;62605;49.432;8.680;2024-03-08T19:05:14;9.70;99.90
10417;DHT22;62605;49.432;8.680;2024-03-08T19:07:44;9.70;99.90
10417;DHT22;62605;49.432;8.680;2024-03-08T19:10:12;9.70;99.90
10417;DHT22;62605;49.432;8.680;2024-03-08T19:12:44;9.60;99.90
10417;DHT22;62605;49.432;8.680;2024-03-08T19:15:13;9.60;99.90
10417;DHT22;62605;49.432;8.680;2024-03-08T19:17:42;9.50;99.90
10417;DHT22;62605;49.432;8.680;2024-03-08T19:20:10;9.40;99.90
10417;DHT22;62605;49.432;8.680;2024-03-08T19:22:45;9.40;99.90
10417;DHT22;62605;49.432;8.680;2024-03-08T19:25:13;9.40;99.90
10417;DHT22;62605;49.432;8.680;2024-03-08T19:27:43;9.50;99.90
10417;DHT22;62605;49.432;8.680;2024-03-08T19:30:11;9.60;99.90
10417;DHT22;62605;49.432;8.680;2024-03-08T19:32:40;9.60;99.90
10417;DHT22;62605;49.432;8.680;2024-03-08T19:35:08;9.60;99.90
10417;DHT22;62605;49.432;8.680;2024-03-08T19:37:37;9.60;99.90
10417;DHT22;62605;49.432;8.680;2024-03-08T19:40:09;9.50;99.90
10417;DHT22;62605;49.432;8.680;2024-03-08T19:42:41;9.50;99.90
10417;DHT22;62605;49.432;8.680;2024-03-08T19:45:11;9.50;99.90
10417;DHT22;62605;49.432;8.680;2024-03-08T19:47:38;9.50;99.90
10417;DHT22;62605;49.432;8.680;2024-03-08T19:50:09;9.40;99.90
10417;DHT22;62605;49.432;8.680;2024-03-08T19:52:37;9.40;99.90
10417;DHT22;62605;49.432;8.680;2024-03-08T19:55:05;9.40;99.90
10417;DHT22;62605;49.432;8.680;2024-03-08T19:57:33;9.40;99.90
10417;DHT22;62605;49.432;8.680;2024-03-08T20:00:00;9.30;99.90
10417;DHT22;62605;49.432;8.680;2024-03-08T20:02:29;9.30;99.90
10417;DHT22;62605;49.432;8.680;2024-03-08T20:04:57;9.30;99.90
10417;DHT22;62605;49.432;8.680;2024-03-08T20:07:27;9.30;99.90
10417;DHT22;62605;49.432;8.680;2024-03-08T20:09:55;9.30;99.90
10417;DHT22;62605;49.432;8.680;2024-03-08T20:12:24;9.30;99.90
10417;DHT22;62605;49.432;8.680;2024-03-08T20:14:52;9.40;99.90
10417;DHT22;62605;49.432;8.680;2024-03-08T20:17:20;9.30;99.90
10417;DHT22;62605;49.432;8.680;2024-03-08T20:19:48;9.40;99.90
10417;DHT22;62605;49.432;8.680;2024-03-08T20:22:17;9.30;99.90
10417;DHT22;62605;49.432;8.680;2024-03-08T20:24:44;9.30;99.90
10417;DHT22;62605;49.432;8.680;2024-03-08T20:27:12;9.30;99.90
10417;DHT22;62605;49.432;8.680;2024-03-08T20:29:40;9.20;99.90
10417;DHT22;62605;49.432;8.680;2024-03-08T20:32:09;9.20;99.90
10417;DHT22;62605;49.432;8.680;2024-03-08T20:34:37;9.20;99.90
10417;DHT22;62605;49.432;8.680;2024-03-08T20:37:04;9.20;99.90
10417;DHT22;62605;49.432;8.680;2024-03-08T20:39:34;9.20;99.90
10417;DHT22;62605;49.432;8.680;2024-03-08T20:42:01;9.20;99.90
10417;DHT22;62605;49.432;8.680;2024-03-08T20:44:31;9.20;99.90
10417;DHT22;62605;49.432;8.680;2024-03-08T20:46:58;9.10;99.90
10417;DHT22;62605;49.432;8.680;2024-03-08T20:49:27;9.20;99.90
10417;DHT22;62605;49.432;8.680;2024-03-08T20:51:54;9.10;99.90
10417;DHT22;62605;49.432;8.680;2024-03-08T20:54:21;9.10;99.90
10417;DHT22;62605;49.432;8.680;2024-03-08T20:56:49;9.00;99.90
10417;DHT22;62605;49.432;8.680;2024-03-08T20:59:17;8.90;99.90
10417;DHT22;62605;49.432;8.680;2024-03-08T21:01:45;9.00;99.90
10417;DHT22;62605;49.432;8.680;2024-03-08T21:04:12;9.00;99.90
10417;DHT22;62605;49.432;8.680;2024-03-08T21:06:44;9.00;99.90
10417;DHT22;62605;49.432;8.680;2024-03-08T21:09:11;8.90;99.90
10417;DHT22;62605;49.432;8.680;2024-03-08T21:11:39;8.80;99.90
10417;DHT22;62605;49.432;8.680;2024-03-08T21:14:06;8.90;99.90
10417;DHT22;62605;49.432;8.680;2024-03-08T21:16:36;8.80;99.90
10417;DHT22;62605;49.432;8.680;2024-03-08T21:19:04;8.80;99.90
10417;DHT22;62605;49.432;8.680;2024-03-08T21:21:32;8.80;99.90
10417;DHT22;62605;49.432;8.680;2024-03-08T21:24:01;8.80;99.90
10417;DHT22;62605;49.432;8.680;2024-03-08T21:26:28;8.80;99.90
10417;DHT22;62605;49.432;8.680;2024-03-08T21:28:55;8.70;99.90
10417;DHT22;62605;49.432;8.680;2024-03-08T21:31:24;8.70;99.90
10417;DHT22;62605;49.432;8.680;2024-03-08T21:33:52;8.80;99.90
10417;DHT22;62605;49.432;8.680;2024-03-08T21:36:19;8.80;99.90
10417;DHT22;62605;49.432;8.680;2024-03-08T21:38:48;8.70;99.90
10417;DHT22;62605;49.432;8.680;2024-03-08T21:41:16;8.60;99.90
10417;DHT22;62605;49.432;8.680;2024-03-08T21:43:43;8.60;99.90
10417;DHT22;62605;49.432;8.680;2024-03-08T21:46:11;8.60;99.90
10417;DHT22;62605;49.432;8.680;2024-03-08T21:48:39;8.50;99.90
10417;DHT22;62605;49.432;8.680;2024-03-08T21:51:06;8.60;99.90
10417;DHT22;62605;49.432;8.680;2024-03-08T21:53:34;8.60;99.90
10417;DHT22;62605;49.432;8.680;2024-03-08T21:56:03;8.60;99.90
10417;DHT22;62605;49.432;8.680;2024-03-08T23:48:24;7.70;99.90
10417;DHT22;62605;49.432;8.680;2024-03-08T23:51:05;7.70;99.90
10417;DHT22;62605;49.432;8.680;2024-03-08T23:53:40;7.70;99.90
10417;DHT22;62605;49.432;8.680;2024-03-08T23:56:12;7.70;99.90
10417;DHT22;62605;49.432;8.680;2024-03-08T23:58:44;7.70;99.90
